Time;durP1;ratioP1;P1;durP2;ratioP2;P2;SDS_P1;SDS_P2;PMS_P1;PMS_P2;Temp;Humidity;BMP_temperature;BMP_pressure;BME280_temperature;BME280_humidity;BME280_pressure;Samples;Min_cycle;Max_cycle;Signal;HPM_P1;HPM_P2
2022/04/28 00:01:51;;;;;;;29.53;26.73;;;8.40;99.90;;;;;;4970656;28;20984;-69
2022/04/28 00:04:17;;;;;;;20.17;18.37;;;8.30;99.90;;;;;;4969536;28;20184;-69
2022/04/28 00:06:43;;;;;;;17.03;15.53;;;8.30;99.90;;;;;;4971360;28;20207;-69
2022/04/28 00:09:08;;;;;;;20.17;18.23;;;8.30;99.90;;;;;;4969966;28;20720;-69
2022/04/28 00:11:34;;;;;;;17.63;15.87;;;8.30;99.90;;;;;;4970039;28;20443;-69
2022/04/28 00:13:59;;;;;;;16.40;15.00;;;8.20;99.90;;;;;;4971309;28;20183;-69
2022/04/28 00:16:26;;;;;;;14.53;13.07;;;8.20;99.90;;;;;;4970905;28;20204;-68
2022/04/28 00:18:52;;;;;;;15.07;13.67;;;8.20;99.90;;;;;;4970921;28;20255;-69
2022/04/28 00:21:17;;;;;;;13.00;11.80;;;8.20;99.90;;;;;;4970921;28;20459;-69
2022/04/28 00:23:43;;;;;;;14.07;12.77;;;8.20;99.90;;;;;;4973356;28;20717;-69
2022/04/28 00:26:09;;;;;;;14.20;12.80;;;8.10;99.90;;;;;;4974828;28;20704;-69
2022/04/28 00:28:34;;;;;;;12.17;11.03;;;8.10;99.90;;;;;;4973408;28;20208;-69
2022/04/28 00:31:00;;;;;;;12.50;11.30;;;8.10;99.90;;;;;;4970523;28;20616;-69
2022/04/28 00:33:27;;;;;;;14.73;12.83;;;8.10;99.90;;;;;;4973477;28;20235;-69
2022/04/28 00:35:55;;;;;;;15.00;13.60;;;8.00;99.90;;;;;;4975780;28;20274;-68
2022/04/28 00:38:21;;;;;;;12.73;11.47;;;8.10;99.90;;;;;;4973664;28;21010;-68
2022/04/28 00:40:46;;;;;;;12.97;11.67;;;8.10;99.90;;;;;;4974955;28;20503;-69
2022/04/28 00:43:18;;;;;;;12.73;11.53;;;8.10;99.90;;;;;;4974776;28;20180;-69
2022/04/28 00:45:44;;;;;;;10.30;9.40;;;8.10;99.90;;;;;;4973892;28;20208;-68
2022/04/28 00:50:59;;;;;;;15.13;10.57;;;8.00;99.90;;;;;;4974127;28;20187;-69
2022/04/28 00:53:28;;;;;;;11.27;9.40;;;7.90;99.90;;;;;;4975359;28;20449;-69
2022/04/28 00:55:55;;;;;;;10.70;9.70;;;7.80;99.90;;;;;;4973722;28;20915;-69
2022/04/28 00:58:20;;;;;;;11.77;10.63;;;7.80;99.90;;;;;;4974831;28;20442;-68
2022/04/28 01:00:46;;;;;;;11.57;10.47;;;7.90;99.90;;;;;;4971452;28;20451;-69
2022/04/28 01:03:12;;;;;;;11.27;10.13;;;7.90;99.90;;;;;;4973061;28;20185;-69
2022/04/28 01:05:38;;;;;;;10.70;9.63;;;7.90;99.90;;;;;;4973679;28;20204;-69
2022/04/28 01:08:04;;;;;;;10.60;9.50;;;7.90;99.90;;;;;;4972878;28;20602;-69
2022/04/28 01:10:30;;;;;;;10.27;9.27;;;7.90;99.90;;;;;;4974107;28;20442;-69
2022/04/28 01:12:56;;;;;;;10.17;9.13;;;7.90;99.90;;;;;;4972815;28;20818;-69
2022/04/28 01:15:22;;;;;;;9.83;8.53;;;7.90;99.90;;;;;;4973856;28;20605;-68
2022/04/28 01:17:48;;;;;;;10.93;9.83;;;7.80;99.90;;;;;;4973813;28;20439;-68
2022/04/28 01:20:13;;;;;;;10.13;9.13;;;7.80;99.90;;;;;;4974230;28;20540;-69
2022/04/28 01:22:39;;;;;;;9.70;8.70;;;7.80;99.90;;;;;;4974005;28;20594;-68
2022/04/28 01:25:07;;;;;;;9.77;8.87;;;7.80;99.90;;;;;;4974570;28;20183;-69
2022/04/28 01:27:34;;;;;;;9.27;8.40;;;7.90;99.90;;;;;;4974226;28;20999;-68
2022/04/28 01:30:00;;;;;;;10.07;9.07;;;7.90;99.90;;;;;;4975088;28;20439;-69
2022/04/28 01:32:25;;;;;;;8.90;8.03;;;7.90;99.90;;;;;;4974367;28;20456;-69
2022/04/28 01:34:51;;;;;;;10.53;9.53;;;7.90;99.90;;;;;;4974099;28;20199;-69
2022/04/28 01:37:17;;;;;;;9.40;8.60;;;7.90;99.90;;;;;;4973572;28;20294;-69
2022/04/28 01:39:43;;;;;;;9.07;8.17;;;7.90;99.90;;;;;;4965827;28;20192;-68
2022/04/28 01:42:09;;;;;;;10.43;8.73;;;7.80;99.90;;;;;;4972880;28;20440;-69
2022/04/28 01:44:35;;;;;;;9.80;8.90;;;7.80;99.90;;;;;;4972990;28;20210;-69
2022/04/28 01:47:01;;;;;;;9.93;9.03;;;7.80;99.90;;;;;;4971502;28;20685;-69
2022/04/28 01:49:27;;;;;;;10.20;8.60;;;7.80;99.90;;;;;;4974081;28;20518;-69
2022/04/28 01:57:20;;;;;;;9.17;8.27;;;7.60;99.90;;;;;;4972896;28;20462;-69
2022/04/28 01:59:46;;;;;;;11.60;9.30;;;7.60;99.90;;;;;;4972830;28;20817;-69
2022/04/28 02:02:11;;;;;;;10.67;9.00;;;7.60;99.90;;;;;;4973835;28;20176;-69
2022/04/28 02:04:38;;;;;;;12.00;9.60;;;7.60;99.90;;;;;;4973958;28;20176;-68
2022/04/28 02:07:04;;;;;;;11.73;10.53;;;7.60;99.90;;;;;;4971111;28;20239;-68
2022/04/28 02:09:29;;;;;;;10.43;9.33;;;7.50;99.90;;;;;;4970583;28;20538;-69
2022/04/28 02:11:55;;;;;;;11.80;9.70;;;7.40;99.90;;;;;;4969829;28;20184;-69
2022/04/28 02:14:20;;;;;;;10.93;9.87;;;7.40;99.90;;;;;;4972630;28;20191;-68
2022/04/28 02:16:46;;;;;;;10.20;9.20;;;7.30;99.90;;;;;;4972812;28;20807;-69
2022/04/28 02:19:11;;;;;;;10.17;9.17;;;7.30;99.90;;;;;;4971499;28;20215;-69
2022/04/28 02:21:37;;;;;;;10.57;9.47;;;7.30;99.90;;;;;;4971456;28;20207;-69
2022/04/28 02:24:03;;;;;;;9.57;8.67;;;7.40;99.90;;;;;;4973424;28;20192;-69
2022/04/28 02:26:28;;;;;;;10.80;9.70;;;7.30;99.90;;;;;;4971141;28;20223;-69
2022/04/28 02:28:54;;;;;;;11.20;10.13;;;7.30;99.90;;;;;;4970484;28;20177;-69
2022/04/28 02:31:20;;;;;;;9.37;8.57;;;7.30;99.90;;;;;;4974702;28;20184;-69
2022/04/28 02:33:45;;;;;;;10.23;9.23;;;7.30;99.90;;;;;;4973306;28;20180;-69
2022/04/28 02:36:12;;;;;;;12.07;10.80;;;7.30;99.90;;;;;;4978405;28;20230;-69
2022/04/28 02:38:38;;;;;;;10.63;9.53;;;7.20;99.90;;;;;;4969648;28;20275;-69
2022/04/28 02:41:03;;;;;;;10.90;9.90;;;7.10;99.90;;;;;;4972680;28;21039;-69
2022/04/28 02:43:29;;;;;;;10.80;9.77;;;7.10;99.90;;;;;;4972564;28;20237;-69
2022/04/28 02:45:55;;;;;;;11.60;10.13;;;6.90;99.90;;;;;;4971742;28;20250;-69
2022/04/28 02:48:20;;;;;;;16.03;9.80;;;6.90;99.90;;;;;;4970526;28;20173;-69
2022/04/28 02:50:46;;;;;;;10.43;9.43;;;6.90;99.90;;;;;;4970386;28;20204;-69
2022/04/28 02:53:12;;;;;;;10.17;9.27;;;6.90;99.90;;;;;;4971897;28;20191;-69
2022/04/28 02:55:40;;;;;;;11.60;10.40;;;6.90;99.90;;;;;;4970812;28;20650;-69
2022/04/28 02:58:06;;;;;;;10.40;9.40;;;6.90;99.90;;;;;;4971671;28;20231;-69
2022/04/28 03:00:32;;;;;;;11.37;10.30;;;6.90;99.90;;;;;;4953241;28;20456;-69
2022/04/28 03:02:58;;;;;;;12.57;10.80;;;6.80;99.90;;;;;;4971160;28;20180;-69
2022/04/28 03:05:23;;;;;;;12.43;10.80;;;6.80;99.90;;;;;;4970864;28;20435;-69
2022/04/28 03:10:49;;;;;;;11.13;10.00;;;6.70;99.90;;;;;;4972135;28;20191;-69
2022/04/28 03:13:17;;;;;;;11.20;10.00;;;6.60;99.90;;;;;;4969118;28;20478;-69
2022/04/28 03:15:45;;;;;;;11.83;10.63;;;6.60;99.90;;;;;;4972396;28;20495;-69
2022/04/28 03:18:14;;;;;;;11.93;10.70;;;6.50;99.90;;;;;;4971613;28;20463;-69
2022/04/28 03:20:40;;;;;;;14.80;10.80;;;6.50;99.90;;;;;;4969204;28;20888;-70
2022/04/28 03:23:06;;;;;;;14.37;11.03;;;6.50;99.90;;;;;;4969960;28;20436;-69
2022/04/28 03:25:32;;;;;;;13.77;12.47;;;6.40;99.90;;;;;;4968331;28;20594;-69
2022/04/28 03:27:57;;;;;;;12.50;10.20;;;6.40;99.90;;;;;;4971894;28;20191;-70
2022/04/28 03:30:23;;;;;;;12.33;10.93;;;6.40;99.90;;;;;;4971606;28;20267;-69
2022/04/28 03:32:49;;;;;;;13.00;10.50;;;6.40;99.90;;;;;;4970868;28;20479;-69
2022/04/28 03:35:15;;;;;;;13.90;12.50;;;6.40;99.90;;;;;;4971548;28;20188;-70
2022/04/28 03:37:44;;;;;;;13.23;11.83;;;6.40;99.90;;;;;;4969980;28;20243;-69
2022/04/28 03:40:10;;;;;;;12.57;11.47;;;6.40;99.90;;;;;;4970868;28;20208;-69
2022/04/28 03:42:36;;;;;;;13.43;12.07;;;6.30;99.90;;;;;;4971282;28;20428;-69
2022/04/28 03:45:01;;;;;;;11.80;10.60;;;6.30;99.90;;;;;;4971613;28;20698;-69
2022/04/28 03:47:32;;;;;;;15.03;10.50;;;6.30;99.90;;;;;;4971739;28;20210;-69
2022/04/28 03:49:58;;;;;;;14.47;13.10;;;6.30;99.90;;;;;;4971443;28;20191;-69
2022/04/28 03:52:24;;;;;;;12.47;11.03;;;6.30;99.90;;;;;;4971202;28;20428;-69
2022/04/28 03:54:50;;;;;;;13.00;11.60;;;6.30;99.90;;;;;;4970335;28;20184;-69
2022/04/28 03:57:15;;;;;;;15.87;12.37;;;6.20;99.90;;;;;;4968550;28;20515;-69
2022/04/28 03:59:41;;;;;;;12.67;11.00;;;6.20;99.90;;;;;;4969677;28;20263;-69
2022/04/28 04:02:06;;;;;;;13.70;12.30;;;6.20;99.90;;;;;;4971831;28;20210;-69
2022/04/28 04:04:32;;;;;;;14.20;11.40;;;6.20;99.90;;;;;;4969014;28;20267;-70
2022/04/28 04:06:58;;;;;;;15.17;12.60;;;6.20;99.90;;;;;;4971209;28;20287;-69
2022/04/28 04:09:23;;;;;;;13.97;12.47;;;6.10;99.90;;;;;;4970619;28;20523;-69
2022/04/28 04:11:49;;;;;;;17.63;11.60;;;6.10;99.90;;;;;;4970709;28;20645;-69
2022/04/28 04:14:14;;;;;;;15.47;12.43;;;6.10;99.90;;;;;;4971790;28;20183;-69
2022/04/28 04:16:40;;;;;;;15.00;11.97;;;6.10;99.90;;;;;;4970724;28;20292;-69
2022/04/28 04:19:06;;;;;;;13.77;12.27;;;6.10;99.90;;;;;;4969024;28;20231;-70
2022/04/28 04:21:31;;;;;;;16.13;13.33;;;6.20;99.90;;;;;;4970794;28;20303;-69
2022/04/28 04:23:57;;;;;;;14.43;12.40;;;6.20;99.90;;;;;;4971066;28;20255;-69
2022/04/28 04:26:23;;;;;;;15.07;12.80;;;6.20;99.90;;;;;;4969252;28;20216;-70
2022/04/28 04:28:48;;;;;;;15.03;12.13;;;6.20;99.90;;;;;;4970491;28;20316;-69
2022/04/28 04:33:58;;;;;;;22.00;16.20;;;6.40;99.90;;;;;;4970591;28;20262;-69
2022/04/28 04:36:23;;;;;;;26.60;17.03;;;6.40;99.90;;;;;;4971667;28;20467;-69
2022/04/28 04:38:49;;;;;;;16.03;14.17;;;6.40;99.90;;;;;;4968486;28;20180;-70
2022/04/28 04:41:14;;;;;;;18.10;14.63;;;6.50;99.90;;;;;;4971004;28;20737;-68
2022/04/28 04:43:40;;;;;;;15.70;12.60;;;6.50;99.90;;;;;;4971504;28;20181;-68
2022/04/28 04:46:06;;;;;;;17.27;12.70;;;6.60;99.90;;;;;;4971904;28;20219;-67
2022/04/28 04:48:31;;;;;;;15.77;13.30;;;6.50;99.90;;;;;;4970320;28;20208;-71
2022/04/28 04:50:57;;;;;;;13.33;11.00;;;6.60;99.90;;;;;;4971650;28;20188;-68
2022/04/28 04:53:23;;;;;;;13.93;12.20;;;6.60;99.90;;;;;;4970625;28;20685;-68
2022/04/28 04:55:48;;;;;;;14.00;12.50;;;6.70;99.90;;;;;;4970647;28;20205;-69
2022/04/28 04:58:14;;;;;;;15.30;12.77;;;6.90;99.90;;;;;;4970280;28;20661;-68
2022/04/28 05:00:40;;;;;;;17.63;12.60;;;7.00;99.90;;;;;;4971006;28;20204;-71
2022/04/28 05:03:05;;;;;;;15.73;12.33;;;7.10;99.90;;;;;;4970515;28;20184;-68
2022/04/28 05:05:31;;;;;;;12.47;11.23;;;7.10;99.90;;;;;;4969666;28;20177;-69
2022/04/28 05:07:57;;;;;;;13.87;12.00;;;7.30;99.90;;;;;;4971573;28;20247;-68
2022/04/28 05:10:22;;;;;;;12.57;11.30;;;7.30;99.90;;;;;;4974089;28;20626;-68
2022/04/28 05:12:48;;;;;;;13.30;11.90;;;7.40;99.90;;;;;;4974451;28;20192;-68
2022/04/28 05:15:14;;;;;;;13.13;11.20;;;7.50;99.90;;;;;;4974899;28;20188;-68
2022/04/28 05:17:39;;;;;;;12.77;11.57;;;7.70;99.90;;;;;;4974293;28;20228;-68
2022/04/28 05:20:07;;;;;;;14.30;12.90;;;7.80;99.90;;;;;;4969673;28;20216;-68
2022/04/28 05:22:32;;;;;;;13.00;11.80;;;8.00;99.90;;;;;;4973715;28;20177;-70
2022/04/28 05:24:58;;;;;;;12.83;11.60;;;8.10;99.90;;;;;;4973549;28;20470;-68
2022/04/28 05:27:23;;;;;;;12.13;10.83;;;8.30;99.90;;;;;;4973081;28;20212;-68
2022/04/28 05:29:49;;;;;;;12.37;11.00;;;8.40;99.90;;;;;;4969524;28;20180;-69
2022/04/28 05:32:24;;;;;;;15.67;12.43;;;8.60;99.90;;;;;;4973197;28;20188;-69
2022/04/28 05:34:49;;;;;;;15.80;13.07;;;8.70;99.90;;;;;;4974322;28;20435;-68
2022/04/28 05:37:15;;;;;;;13.70;12.10;;;8.90;99.90;;;;;;4970927;28;20505;-68
2022/04/28 05:39:42;;;;;;;14.10;12.63;;;9.00;99.90;;;;;;4972518;28;20181;-68
2022/04/28 05:42:09;;;;;;;13.53;12.00;;;9.10;99.90;;;;;;4973332;28;20208;-68
2022/04/28 05:47:19;;;;;;;15.33;12.30;;;9.30;99.90;;;;;;4972795;28;20501;-69
2022/04/28 05:49:45;;;;;;;13.27;12.00;;;9.40;99.90;;;;;;4971756;28;20522;-69
2022/04/28 05:52:10;;;;;;;13.20;12.00;;;9.60;99.90;;;;;;4973347;28;20267;-68
2022/04/28 05:54:36;;;;;;;14.50;12.93;;;9.70;99.90;;;;;;4972576;28;20184;-68
2022/04/28 05:57:02;;;;;;;15.17;13.57;;;10.00;99.90;;;;;;4955904;28;20681;-68
2022/04/28 05:59:28;;;;;;;21.53;17.90;;;10.20;99.90;;;;;;4973130;28;20191;-69
2022/04/28 06:01:54;;;;;;;16.40;14.30;;;10.30;99.90;;;;;;4972893;28;20460;-68
2022/04/28 06:04:19;;;;;;;14.43;13.03;;;10.50;99.90;;;;;;4973491;28;20193;-68
2022/04/28 06:06:45;;;;;;;14.43;12.17;;;10.60;99.90;;;;;;4971020;28;20204;-69
2022/04/28 06:09:10;;;;;;;13.53;12.13;;;10.80;99.90;;;;;;4971815;28;20235;-69
2022/04/28 06:11:36;;;;;;;13.53;12.13;;;11.00;99.90;;;;;;4970834;28;20184;-69
2022/04/28 06:14:01;;;;;;;13.37;11.90;;;11.20;99.90;;;;;;4977570;28;20187;-69
2022/04/28 06:16:27;;;;;;;15.90;14.33;;;11.40;99.90;;;;;;4975235;28;20218;-70
2022/04/28 06:18:52;;;;;;;18.70;13.53;;;11.70;99.90;;;;;;4970743;28;20322;-69
2022/04/28 06:21:18;;;;;;;15.20;13.67;;;11.80;99.90;;;;;;4972052;28;20273;-68
2022/04/28 06:23:45;;;;;;;15.53;14.13;;;11.80;99.90;;;;;;4971368;28;20642;-68
2022/04/28 06:26:10;;;;;;;13.40;12.10;;;11.80;99.90;;;;;;4970606;28;20594;-68
2022/04/28 06:28:36;;;;;;;15.03;13.53;;;12.10;99.90;;;;;;4970900;28;20442;-68
2022/04/28 06:31:01;;;;;;;13.17;11.87;;;12.40;99.90;;;;;;4971460;28;20654;-68
2022/04/28 06:33:27;;;;;;;12.63;11.33;;;12.60;99.90;;;;;;4974774;28;20253;-69
2022/04/28 06:35:53;;;;;;;13.27;11.97;;;12.70;99.90;;;;;;4972200;28;20241;-69
2022/04/28 06:38:18;;;;;;;11.30;10.30;;;12.70;99.90;;;;;;4971683;28;20264;-68
2022/04/28 06:40:43;;;;;;;11.80;10.77;;;12.80;99.90;;;;;;4970796;28;20290;-69
2022/04/28 06:43:09;;;;;;;11.33;10.33;;;13.00;99.90;;;;;;4970082;28;20192;-68
2022/04/28 06:45:36;;;;;;;10.93;9.83;;;13.30;99.90;;;;;;4969918;28;20686;-68
2022/04/28 06:48:02;;;;;;;12.03;10.87;;;13.50;99.90;;;;;;4970535;28;20528;-69
2022/04/28 06:50:27;;;;;;;16.07;11.00;;;13.80;99.90;;;;;;4970579;28;20446;-68
2022/04/28 06:52:53;;;;;;;11.63;10.20;;;14.00;99.90;;;;;;4971096;28;20708;-68
2022/04/28 06:55:18;;;;;;;11.30;10.30;;;14.20;99.90;;;;;;4969160;28;20184;-68
2022/04/28 06:57:44;;;;;;;10.30;9.30;;;14.40;99.90;;;;;;4971250;28;20575;-68
2022/04/28 07:00:10;;;;;;;10.63;9.70;;;14.50;99.90;;;;;;4972052;28;20208;-69
2022/04/28 07:02:36;;;;;;;13.80;11.20;;;14.70;99.90;;;;;;4969618;28;20688;-68
2022/04/28 07:05:02;;;;;;;12.40;11.20;;;14.70;99.90;;;;;;4968053;28;20439;-68
2022/04/28 07:07:28;;;;;;;11.80;10.60;;;14.90;99.90;;;;;;4969554;28;20476;-68
2022/04/28 07:09:53;;;;;;;10.90;9.90;;;15.10;99.90;;;;;;4969727;28;20435;-68
2022/04/28 07:12:19;;;;;;;9.57;8.67;;;15.20;99.90;;;;;;4970254;28;20206;-68
2022/04/28 07:14:44;;;;;;;9.80;8.83;;;15.30;99.90;;;;;;4970843;28;20658;-68
2022/04/28 07:17:10;;;;;;;10.83;9.80;;;15.40;99.90;;;;;;4971066;28;20677;-69
2022/04/28 07:19:36;;;;;;;10.00;9.20;;;15.50;99.90;;;;;;4970645;28;20176;-68
2022/04/28 07:22:02;;;;;;;10.10;8.40;;;15.40;99.90;;;;;;4971777;28;20521;-68
2022/04/28 07:24:29;;;;;;;8.80;8.00;;;15.40;99.90;;;;;;4969446;28;20852;-68
2022/04/28 07:26:55;;;;;;;8.30;7.60;;;15.30;99.90;;;;;;4966275;28;20477;-69
2022/04/28 07:29:20;;;;;;;8.00;7.30;;;15.40;99.90;;;;;;4970984;28;20498;-68
2022/04/28 07:31:46;;;;;;;8.07;7.10;;;15.40;99.90;;;;;;4967064;28;20443;-68
2022/04/28 07:34:11;;;;;;;8.50;7.80;;;15.30;99.90;;;;;;4936441;28;20188;-68
2022/04/28 07:36:37;;;;;;;9.30;8.50;;;15.40;99.90;;;;;;4942939;28;20621;-68
2022/04/28 07:39:03;;;;;;;10.50;9.60;;;15.60;99.90;;;;;;4971090;28;20614;-68
2022/04/28 07:41:28;;;;;;;9.10;8.30;;;15.80;99.90;;;;;;4969461;28;20219;-68
2022/04/28 07:43:54;;;;;;;9.27;8.57;;;16.00;99.90;;;;;;4965960;28;20176;-68
2022/04/28 07:46:20;;;;;;;10.57;9.60;;;16.00;99.90;;;;;;4970990;28;20487;-68
2022/04/28 07:48:45;;;;;;;9.10;7.93;;;16.20;99.90;;;;;;4967474;28;20212;-68
2022/04/28 07:51:11;;;;;;;7.87;7.27;;;16.30;99.90;;;;;;4969571;28;20553;-68
2022/04/28 07:53:37;;;;;;;8.60;7.80;;;16.10;99.90;;;;;;4967188;28;20583;-68
2022/04/28 07:56:17;;;;;;;6.93;6.33;;;16.20;99.90;;;;;;4969273;28;20207;-69
2022/04/28 07:58:43;;;;;;;7.70;7.03;;;16.50;99.90;;;;;;4967622;28;20435;-69
2022/04/28 08:01:09;;;;;;;8.37;7.60;;;16.50;99.40;;;;;;4970155;28;20551;-69
2022/04/28 08:03:35;;;;;;;8.27;7.57;;;16.40;99.40;;;;;;4967190;28;20796;-69
2022/04/28 08:06:01;;;;;;;8.23;7.53;;;16.30;99.10;;;;;;4968360;28;20455;-68
2022/04/28 08:08:27;;;;;;;8.10;7.40;;;16.30;98.10;;;;;;4969687;28;20543;-69
2022/04/28 08:10:53;;;;;;;6.93;6.40;;;16.30;98.00;;;;;;4970090;28;20439;-68
2022/04/28 08:13:19;;;;;;;7.33;6.73;;;16.40;95.90;;;;;;4951467;28;20481;-68
2022/04/28 08:15:44;;;;;;;7.97;7.33;;;16.50;96.40;;;;;;4971133;28;20204;-68
2022/04/28 08:18:10;;;;;;;6.40;5.80;;;16.60;95.60;;;;;;4968431;28;20191;-68
2022/04/28 08:20:39;;;;;;;7.10;6.60;;;16.60;94.70;;;;;;4968971;28;20204;-69
2022/04/28 08:23:05;;;;;;;7.20;6.60;;;16.70;94.70;;;;;;4964118;28;20191;-69
2022/04/28 08:25:30;;;;;;;6.90;6.03;;;17.00;95.20;;;;;;4970144;28;20443;-68
2022/04/28 08:27:56;;;;;;;7.47;6.80;;;17.30;94.20;;;;;;4988804;23;20234;-65
2022/04/28 08:30:21;;;;;;;7.10;6.60;;;17.40;93.40;;;;;;4965801;28;20192;-65
2022/04/28 08:32:47;;;;;;;8.10;7.37;;;17.50;92.10;;;;;;4966151;28;20220;-66
2022/04/28 08:35:12;;;;;;;6.27;5.87;;;18.00;92.10;;;;;;4967526;28;20215;-66
2022/04/28 08:37:39;;;;;;;6.97;6.37;;;18.30;90.50;;;;;;4953200;28;20212;-65
2022/04/28 08:40:06;;;;;;;6.57;6.07;;;18.00;90.30;;;;;;4948012;28;20646;-65
2022/04/28 08:42:34;;;;;;;6.93;6.43;;;17.70;90.20;;;;;;4945892;28;20964;-65
2022/04/28 08:45:00;;;;;;;8.03;7.33;;;17.80;90.70;;;;;;4951741;29;20444;-65
2022/04/28 08:47:27;;;;;;;7.80;6.40;;;17.70;89.80;;;;;;4959818;28;20452;-65
2022/04/28 08:49:52;;;;;;;7.50;6.80;;;17.90;90.00;;;;;;4956047;28;20467;-66
2022/04/28 08:52:18;;;;;;;8.93;6.10;;;18.00;87.20;;;;;;4951593;28;20444;-66
2022/04/28 08:54:46;;;;;;;6.30;5.70;;;18.20;88.30;;;;;;4950540;29;20196;-66
2022/04/28 08:57:13;;;;;;;7.40;6.47;;;18.20;85.70;;;;;;4948808;28;20464;-66
2022/04/28 08:59:39;;;;;;;7.73;6.77;;;18.30;84.90;;;;;;4954076;29;20450;-66
2022/04/28 09:02:05;;;;;;;7.13;6.53;;;18.50;84.70;;;;;;4949324;28;20964;-65
2022/04/28 09:04:31;;;;;;;6.23;5.73;;;18.80;84.90;;;;;;4951743;28;20444;-66
2022/04/28 09:06:58;;;;;;;6.70;6.10;;;19.20;83.70;;;;;;4948953;28;20448;-65
2022/04/28 09:09:26;;;;;;;5.77;5.27;;;18.70;80.10;;;;;;4955635;28;20558;-66
2022/04/28 09:11:53;;;;;;;6.47;5.83;;;18.70;83.20;;;;;;4955488;28;20448;-66
2022/04/28 09:14:20;;;;;;;6.60;5.90;;;19.10;79.80;;;;;;4950086;28;20444;-66
2022/04/28 09:17:00;;;;;;;6.90;5.40;;;19.20;78.10;;;;;;4954122;28;20463;-66
2022/04/28 09:19:34;;;;;;;5.93;5.07;;;19.10;77.00;;;;;;4953665;29;20535;-66
2022/04/28 09:22:12;;;;;;;5.50;5.10;;;19.40;74.90;;;;;;4950315;28;20944;-66
2022/04/28 09:24:39;;;;;;;7.17;6.47;;;19.90;75.80;;;;;;4950314;29;20535;-66
2022/04/28 09:27:07;;;;;;;6.00;5.50;;;20.30;71.00;;;;;;4952898;28;20498;-65
2022/04/28 09:29:36;;;;;;;5.83;4.83;;;19.70;71.90;;;;;;4950947;28;20864;-66
2022/04/28 09:32:06;;;;;;;5.70;5.20;;;20.10;72.80;;;;;;4953864;28;20444;-66
2022/04/28 09:34:31;;;;;;;4.40;4.10;;;20.30;70.90;;;;;;4948911;29;20432;-66
2022/04/28 09:36:58;;;;;;;4.73;4.43;;;20.60;67.00;;;;;;4953860;28;20468;-67
2022/04/28 09:42:33;;;;;;;5.27;4.83;;;21.40;62.10;;;;;;4952397;29;20523;-67
2022/04/28 09:45:01;;;;;;;4.93;4.63;;;21.50;57.00;;;;;;4953218;28;20439;-66
2022/04/28 09:47:28;;;;;;;4.50;4.00;;;21.40;56.80;;;;;;4952636;28;20461;-66
2022/04/28 09:49:55;;;;;;;5.17;4.70;;;21.40;57.00;;;;;;4949365;29;20780;-66
2022/04/28 09:52:24;;;;;;;5.60;4.90;;;21.50;57.70;;;;;;4951006;29;20456;-67
2022/04/28 09:54:54;;;;;;;4.73;4.43;;;22.30;56.40;;;;;;4941722;28;20459;-66
2022/04/28 09:57:20;;;;;;;5.03;4.63;;;22.90;54.80;;;;;;4949747;28;21005;-66
2022/04/28 09:59:53;;;;;;;5.10;4.70;;;23.10;53.00;;;;;;4949890;28;20444;-66
2022/04/28 10:02:20;;;;;;;5.70;5.17;;;23.00;53.80;;;;;;4948742;29;20475;-66
2022/04/28 10:04:47;;;;;;;6.07;5.57;;;22.90;53.00;;;;;;4948082;28;20444;-66
2022/04/28 10:07:13;;;;;;;6.20;5.70;;;23.70;53.50;;;;;;4953613;28;20463;-66
2022/04/28 10:09:48;;;;;;;4.77;4.47;;;23.40;52.70;;;;;;4957420;28;20447;-66
2022/04/28 10:12:18;;;;;;;4.90;4.60;;;22.60;54.40;;;;;;4949019;28;20469;-66
2022/04/28 10:14:44;;;;;;;4.93;4.60;;;22.90;53.30;;;;;;4948277;28;20452;-66
2022/04/28 10:17:12;;;;;;;5.07;4.53;;;23.40;52.00;;;;;;4950172;28;20540;-66
2022/04/28 10:19:42;;;;;;;5.33;4.93;;;24.20;51.00;;;;;;4951571;29;20188;-66
2022/04/28 10:22:14;;;;;;;6.80;6.23;;;24.50;48.70;;;;;;4951392;28;20490;-67
2022/04/28 10:33:04;;;;;;;5.20;4.70;;;24.30;45.40;;;;;;4947157;29;20443;-66
2022/04/28 10:35:53;;;;;;;4.80;4.50;;;24.40;45.30;;;;;;4945113;28;20440;-65
2022/04/28 10:38:21;;;;;;;5.80;5.20;;;24.70;45.00;;;;;;4948724;29;20444;-66
2022/04/28 10:41:00;;;;;;;4.90;4.50;;;26.00;45.10;;;;;;4949352;29;20465;-66
2022/04/28 10:43:33;;;;;;;4.83;4.50;;;25.90;44.10;;;;;;4946750;29;20440;-65
2022/04/28 10:46:08;;;;;;;6.33;4.60;;;26.70;42.50;;;;;;4945573;28;20436;-67
2022/04/28 10:48:42;;;;;;;5.70;5.20;;;26.80;42.80;;;;;;4948849;28;20443;-67
2022/04/28 10:51:29;;;;;;;6.20;5.60;;;27.80;42.20;;;;;;4932889;29;20440;-69
2022/04/28 10:54:14;;;;;;;7.17;5.90;;;28.60;41.40;;;;;;4943263;29;20948;-68
2022/04/28 10:56:54;;;;;;;5.60;5.20;;;30.20;39.90;;;;;;4946589;28;20482;-63
2022/04/28 10:59:29;;;;;;;6.37;5.27;;;31.20;38.10;;;;;;4948623;29;20436;-63
2022/04/28 11:01:56;;;;;;;5.00;4.60;;;30.80;37.40;;;;;;4944509;28;20478;-68
2022/04/28 11:04:26;;;;;;;4.73;4.43;;;30.60;36.70;;;;;;4945038;29;20873;-69
2022/04/28 11:06:56;;;;;;;5.50;4.97;;;30.30;37.00;;;;;;4946622;28;20461;-69
2022/04/28 11:09:36;;;;;;;5.47;5.07;;;29.60;36.40;;;;;;4947575;28;20445;-69
2022/04/28 11:12:11;;;;;;;4.50;4.10;;;29.60;37.50;;;;;;4943705;29;20502;-66
2022/04/28 11:14:59;;;;;;;6.37;5.83;;;30.80;35.70;;;;;;4943106;28;20448;-66
2022/04/28 11:17:26;;;;;;;4.20;3.90;;;29.30;36.10;;;;;;4949004;28;20550;-66
2022/04/28 11:19:52;;;;;;;4.40;4.10;;;29.60;36.00;;;;;;4946154;28;20456;-67
2022/04/28 11:22:17;;;;;;;4.87;4.47;;;28.70;35.80;;;;;;4941923;28;20476;-66
2022/04/28 11:24:44;;;;;;;4.93;4.23;;;29.60;36.00;;;;;;4946132;28;20317;-64
2022/04/28 11:27:15;;;;;;;4.33;3.93;;;29.60;35.30;;;;;;4946126;28;20213;-64
2022/04/28 11:29:42;;;;;;;4.43;4.13;;;27.90;36.40;;;;;;4946782;29;20818;-64
2022/04/28 11:32:11;;;;;;;5.23;4.73;;;28.10;36.20;;;;;;4948683;29;20527;-67
2022/04/28 11:34:37;;;;;;;5.20;4.80;;;28.10;36.70;;;;;;4945892;29;20432;-66
2022/04/28 11:37:17;;;;;;;4.80;4.00;;;29.00;35.90;;;;;;4947794;28;21008;-67
2022/04/28 11:39:44;;;;;;;4.20;3.90;;;29.80;35.20;;;;;;4947861;28;20440;-67
2022/04/28 11:42:12;;;;;;;5.10;4.70;;;29.40;35.70;;;;;;4930795;29;20460;-67
2022/04/28 11:44:52;;;;;;;4.97;4.13;;;29.70;35.00;;;;;;4929429;29;20856;-66
2022/04/28 11:47:22;;;;;;;5.57;4.33;;;29.80;35.20;;;;;;4947425;28;20464;-66
2022/04/28 11:49:51;;;;;;;5.00;4.63;;;29.50;34.70;;;;;;4946996;29;20883;-66
2022/04/28 11:52:23;;;;;;;4.30;4.00;;;28.90;34.90;;;;;;4948695;28;20436;-66
2022/04/28 11:54:52;;;;;;;4.70;4.40;;;28.20;36.40;;;;;;4946806;29;20452;-66
2022/04/28 11:57:18;;;;;;;5.27;4.87;;;26.40;36.90;;;;;;4950476;28;20460;-66
2022/04/28 11:59:44;;;;;;;5.13;4.73;;;26.50;38.40;;;;;;4941613;29;20451;-66
2022/04/28 12:02:28;;;;;;;5.37;5.03;;;26.60;36.90;;;;;;4950410;28;20461;-66
2022/04/28 12:04:55;;;;;;;7.00;6.30;;;26.60;37.50;;;;;;4950589;28;20204;-66
2022/04/28 12:07:22;;;;;;;4.67;4.30;;;29.30;37.10;;;;;;4950049;28;20452;-66
2022/04/28 12:15:19;;;;;;;4.17;3.63;;;29.90;33.40;;;;;;4947299;29;20454;-66
2022/04/28 12:21:00;;;;;;;4.17;3.83;;;32.40;32.50;;;;;;4950144;29;20214;-63
2022/04/28 12:23:38;;;;;;;5.77;4.73;;;33.50;38.60;;;;;;4931437;29;21016;-66
2022/04/28 12:26:06;;;;;;;4.33;4.03;;;33.60;38.30;;;;;;4950877;28;20518;-66
2022/04/28 12:28:33;;;;;;;4.20;3.90;;;34.20;38.70;;;;;;4949557;29;20447;-67
2022/04/28 12:31:02;;;;;;;5.33;4.37;;;34.10;38.30;;;;;;4948594;28;20491;-64
2022/04/28 12:33:33;;;;;;;4.33;3.87;;;34.00;39.10;;;;;;4946602;28;20507;-66
2022/04/28 12:35:59;;;;;;;7.30;3.80;;;35.40;30.40;;;;;;4950405;28;20455;-64
2022/04/28 12:38:26;;;;;;;4.23;3.93;;;34.00;29.90;;;;;;4948813;28;20440;-64
2022/04/28 12:40:53;;;;;;;4.57;4.27;;;32.50;29.60;;;;;;4949992;28;20471;-63
2022/04/28 12:43:39;;;;;;;8.73;3.77;;;31.30;30.40;;;;;;4948259;28;20432;-64
2022/04/28 12:46:06;;;;;;;4.00;3.77;;;30.60;31.80;;;;;;4949773;28;20432;-63
2022/04/28 12:48:36;;;;;;;3.90;3.40;;;31.20;30.90;;;;;;4949140;29;20433;-64
2022/04/28 12:51:19;;;;;;;4.30;3.90;;;30.70;31.00;;;;;;4945112;28;20997;-66
2022/04/28 12:54:07;;;;;;;4.33;4.03;;;30.60;31.10;;;;;;4948587;29;20491;-67
2022/04/28 12:56:33;;;;;;;4.10;3.80;;;31.50;30.60;;;;;;4948268;28;20506;-64
2022/04/28 12:59:08;;;;;;;4.37;3.97;;;32.00;30.40;;;;;;4950793;28;20551;-64
2022/04/28 13:01:34;;;;;;;4.10;3.90;;;32.50;30.70;;;;;;4948745;28;20936;-64
2022/04/28 13:04:03;;;;;;;5.10;4.80;;;33.10;30.30;;;;;;4943722;29;20467;-63
2022/04/28 13:06:31;;;;;;;5.00;4.60;;;32.50;30.40;;;;;;4945440;28;20471;-65
2022/04/28 13:08:59;;;;;;;4.80;4.40;;;32.50;30.00;;;;;;4947846;29;20448;-64
2022/04/28 13:11:30;;;;;;;4.67;4.27;;;33.50;29.90;;;;;;4946557;29;20436;-67
2022/04/28 13:13:58;;;;;;;4.83;4.40;;;34.50;29.50;;;;;;4944823;28;20860;-65
2022/04/28 13:16:24;;;;;;;4.23;3.90;;;35.00;29.10;;;;;;4947170;28;20543;-64
2022/04/28 13:18:50;;;;;;;4.63;3.67;;;34.80;29.20;;;;;;4945931;29;20436;-64
2022/04/28 13:21:16;;;;;;;4.00;3.60;;;34.80;28.40;;;;;;4948123;28;20514;-64